createdAt,value
2022-10-22T00:00:32.332Z,0
2022-10-22T00:01:31.690Z,0
2022-10-22T00:02:32.238Z,0
2022-10-22T00:03:32.086Z,0
2022-10-22T00:04:34.587Z,0
2022-10-22T00:05:31.709Z,0
2022-10-22T00:06:32.101Z,0
2022-10-22T00:07:32.145Z,0
2022-10-22T00:08:32.167Z,0
2022-10-22T00:09:31.667Z,0
2022-10-22T00:10:32.107Z,0
2022-10-22T00:11:32.071Z,0
2022-10-22T00:12:32.097Z,0
2022-10-22T00:13:31.658Z,0
2022-10-22T00:14:32.103Z,0
2022-10-22T00:15:32.051Z,0
2022-10-22T00:16:32.082Z,0
2022-10-22T00:17:31.633Z,0
2022-10-22T00:18:32.104Z,0
2022-10-22T00:19:32.055Z,0
2022-10-22T00:20:32.105Z,0
2022-10-22T00:21:31.663Z,0
2022-10-22T00:22:32.214Z,0
2022-10-22T00:23:32.106Z,0
2022-10-22T00:24:32.093Z,0
2022-10-22T00:25:31.666Z,0
2022-10-22T00:26:32.106Z,0
2022-10-22T00:27:32.089Z,0
2022-10-22T00:28:32.094Z,0
2022-10-22T00:29:31.652Z,0
2022-10-22T00:30:32.117Z,0
2022-10-22T00:31:32.082Z,0
2022-10-22T00:32:32.095Z,0
2022-10-22T00:33:31.652Z,0
2022-10-22T00:34:32.159Z,0
2022-10-22T00:35:32.068Z,0
2022-10-22T00:36:32.087Z,0
2022-10-22T00:37:31.617Z,0
2022-10-22T00:38:32.085Z,0
2022-10-22T00:39:32.076Z,0
2022-10-22T00:40:32.211Z,0
2022-10-22T00:41:31.661Z,0
2022-10-22T00:42:32.089Z,0
2022-10-22T00:43:32.090Z,0
2022-10-22T00:44:32.122Z,0
2022-10-22T00:45:31.648Z,0
2022-10-22T00:46:32.147Z,0
2022-10-22T00:47:32.063Z,0
2022-10-22T00:48:32.071Z,0
2022-10-22T00:49:31.583Z,0
2022-10-22T00:50:32.133Z,0
2022-10-22T00:51:32.054Z,0
2022-10-22T00:52:32.088Z,0
2022-10-22T00:53:31.611Z,0
2022-10-22T00:54:32.091Z,0
2022-10-22T00:55:32.061Z,0
2022-10-22T00:56:32.097Z,0
2022-10-22T00:57:31.680Z,0
2022-10-22T00:58:32.108Z,0
2022-10-22T00:59:32.088Z,0
2022-10-22T01:00:32.193Z,0
2022-10-22T01:01:31.633Z,0
2022-10-22T01:02:32.092Z,0
2022-10-22T01:03:32.080Z,0
2022-10-22T01:04:32.100Z,0
2022-10-22T01:05:31.594Z,0
2022-10-22T01:06:32.083Z,0
2022-10-22T01:07:32.066Z,0
2022-10-22T01:08:32.185Z,0
2022-10-22T01:09:31.618Z,0
2022-10-22T01:10:32.168Z,0
2022-10-22T01:11:32.044Z,0
2022-10-22T01:12:32.099Z,0
2022-10-22T01:13:31.586Z,0
2022-10-22T01:14:32.095Z,0
2022-10-22T01:15:32.101Z,0
2022-10-22T01:16:32.095Z,0
2022-10-22T01:17:31.578Z,0
2022-10-22T01:18:32.143Z,0
2022-10-22T01:19:32.049Z,0
2022-10-22T01:20:32.081Z,0
2022-10-22T01:21:31.567Z,0
2022-10-22T01:22:32.099Z,0
2022-10-22T01:23:32.044Z,0
2022-10-22T01:24:32.150Z,0
2022-10-22T01:25:31.578Z,0
2022-10-22T01:26:32.107Z,0
2022-10-22T01:27:32.067Z,0
2022-10-22T01:28:32.108Z,0
2022-10-22T01:29:31.584Z,0
2022-10-22T01:30:32.090Z,0
2022-10-22T01:31:32.059Z,0
2022-10-22T01:32:32.091Z,0
2022-10-22T01:33:31.564Z,0
2022-10-22T01:34:32.088Z,0
2022-10-22T01:36:32.088Z,0
2022-10-22T01:37:31.597Z,0
2022-10-22T01:38:32.106Z,0
2022-10-22T01:39:32.058Z,0
2022-10-22T01:40:32.215Z,0
2022-10-22T01:41:31.716Z,0
2022-10-22T01:42:32.212Z,0
2022-10-22T01:43:32.204Z,0
2022-10-22T01:44:32.355Z,0
2022-10-22T01:45:31.688Z,0
2022-10-22T01:46:32.292Z,0
2022-10-22T01:47:32.164Z,0
2022-10-22T01:48:32.359Z,0
2022-10-22T01:49:31.564Z,0
2022-10-22T01:50:32.089Z,0
2022-10-22T01:51:32.061Z,0
2022-10-22T01:52:32.083Z,0
2022-10-22T01:53:31.611Z,0
2022-10-22T01:54:32.091Z,0
2022-10-22T01:55:32.113Z,0
2022-10-22T01:56:32.100Z,0
2022-10-22T01:57:31.519Z,0
2022-10-22T01:58:32.098Z,0
2022-10-22T01:59:32.075Z,0
2022-10-22T02:00:32.105Z,0
2022-10-22T02:01:31.669Z,0
2022-10-22T02:02:32.076Z,0
2022-10-22T02:03:32.066Z,0
2022-10-22T02:04:32.097Z,0
2022-10-22T02:05:31.544Z,0
2022-10-22T02:06:32.096Z,0
2022-10-22T02:07:32.062Z,0
2022-10-22T02:08:32.140Z,0
2022-10-22T02:09:31.558Z,0
2022-10-22T02:10:32.105Z,0
2022-10-22T02:11:32.048Z,0
2022-10-22T02:12:32.080Z,0
2022-10-22T02:13:31.506Z,0
2022-10-22T02:14:32.077Z,0
2022-10-22T02:15:32.040Z,0
2022-10-22T02:16:32.105Z,0
2022-10-22T02:17:31.545Z,0
2022-10-22T02:18:35.265Z,0
2022-10-22T02:19:32.047Z,0
2022-10-22T02:20:32.076Z,0
2022-10-22T02:21:31.579Z,0
2022-10-22T02:22:32.078Z,0
2022-10-22T02:23:32.065Z,0
2022-10-22T02:24:32.088Z,0
2022-10-22T02:25:31.484Z,0
2022-10-22T02:26:32.089Z,0
2022-10-22T02:27:32.069Z,0
2022-10-22T02:28:32.123Z,0
2022-10-22T02:29:31.494Z,0
2022-10-22T02:30:32.065Z,0
2022-10-22T02:31:32.093Z,0
2022-10-22T02:32:32.090Z,0
2022-10-22T02:33:31.521Z,0
2022-10-22T02:34:32.121Z,0
2022-10-22T02:35:32.103Z,0
2022-10-22T02:36:32.073Z,0
2022-10-22T02:37:31.522Z,0
2022-10-22T02:38:32.089Z,0
2022-10-22T02:39:32.063Z,0
2022-10-22T02:40:32.076Z,0
2022-10-22T02:41:31.542Z,0
2022-10-22T02:42:32.075Z,0
2022-10-22T02:43:32.153Z,0
2022-10-22T02:44:32.081Z,0
2022-10-22T02:45:31.586Z,0
2022-10-22T02:46:32.066Z,0
2022-10-22T02:47:32.035Z,0
2022-10-22T02:48:32.113Z,0
2022-10-22T02:49:31.493Z,0
2022-10-22T02:50:32.117Z,0
2022-10-22T02:51:32.057Z,0
2022-10-22T02:52:32.067Z,0
2022-10-22T02:53:31.494Z,0
2022-10-22T02:54:32.048Z,0
2022-10-22T02:55:32.086Z,0
2022-10-22T02:56:32.037Z,0
2022-10-22T02:57:31.431Z,0
2022-10-22T02:58:32.088Z,0
2022-10-22T02:59:32.096Z,0
2022-10-22T03:00:32.093Z,0
2022-10-22T03:01:31.448Z,0
2022-10-22T03:02:32.088Z,0
2022-10-22T03:03:32.066Z,0
2022-10-22T03:04:32.084Z,0
2022-10-22T03:05:31.493Z,0
2022-10-22T03:06:32.084Z,0
2022-10-22T03:07:32.102Z,0
2022-10-22T03:08:32.119Z,0
2022-10-22T03:09:31.489Z,0
2022-10-22T03:10:32.085Z,0
2022-10-22T03:11:32.114Z,0
2022-10-22T03:12:32.158Z,0
2022-10-22T03:13:31.510Z,0
2022-10-22T03:14:32.126Z,0
2022-10-22T03:15:32.169Z,0
2022-10-22T03:16:32.076Z,0
2022-10-22T03:17:31.554Z,0
2022-10-22T03:18:32.233Z,0
2022-10-22T03:19:32.237Z,0
2022-10-22T03:20:32.213Z,0
2022-10-22T03:21:31.561Z,0
2022-10-22T03:22:32.204Z,0
2022-10-22T03:23:32.168Z,0
2022-10-22T03:24:32.213Z,0
2022-10-22T03:25:31.502Z,0
2022-10-22T03:26:32.169Z,0
2022-10-22T03:27:32.091Z,0
2022-10-22T03:28:32.064Z,0
2022-10-22T03:29:31.465Z,0
2022-10-22T03:30:32.225Z,0
2022-10-22T03:31:32.198Z,0
2022-10-22T03:32:32.151Z,0
2022-10-22T03:33:31.561Z,0
2022-10-22T03:34:32.068Z,0
2022-10-22T03:35:32.083Z,0
2022-10-22T03:36:32.034Z,0
2022-10-22T03:37:31.428Z,0
2022-10-22T03:38:32.098Z,0
2022-10-22T03:39:32.096Z,0
2022-10-22T03:40:32.134Z,0
2022-10-22T03:41:31.571Z,0
2022-10-22T03:42:32.218Z,0
2022-10-22T03:43:32.206Z,0
2022-10-22T03:44:32.051Z,0
2022-10-22T03:45:31.513Z,0
2022-10-22T03:46:32.095Z,0
2022-10-22T03:47:32.067Z,0
2022-10-22T03:48:32.034Z,0
2022-10-22T03:49:31.420Z,0
2022-10-22T03:50:32.075Z,0
2022-10-22T03:51:32.063Z,0
2022-10-22T03:52:32.043Z,0
2022-10-22T03:53:31.430Z,0
2022-10-22T03:54:32.146Z,0
2022-10-22T03:55:32.059Z,0
2022-10-22T03:56:32.148Z,0
2022-10-22T03:57:31.427Z,0
2022-10-22T03:58:32.080Z,0
2022-10-22T03:59:32.038Z,0
2022-10-22T04:00:32.093Z,0
2022-10-22T04:01:31.441Z,0
2022-10-22T04:02:32.066Z,0
2022-10-22T04:03:32.055Z,0
2022-10-22T04:04:32.055Z,0
2022-10-22T04:05:31.412Z,0
2022-10-22T04:06:32.077Z,0
2022-10-22T04:07:32.045Z,0
2022-10-22T04:08:32.082Z,0
2022-10-22T04:09:31.440Z,0
2022-10-22T04:10:32.079Z,0
2022-10-22T04:11:32.052Z,0
2022-10-22T04:12:32.062Z,0
2022-10-22T04:13:31.414Z,0
2022-10-22T04:14:32.100Z,0
2022-10-22T04:15:32.139Z,0
2022-10-22T04:16:32.094Z,0
2022-10-22T04:17:31.431Z,0
2022-10-22T04:18:32.073Z,0
2022-10-22T04:19:32.199Z,0
2022-10-22T04:20:32.108Z,0
2022-10-22T04:21:31.448Z,0
2022-10-22T04:22:32.255Z,0
2022-10-22T04:23:32.042Z,0
2022-10-22T04:24:32.077Z,0
2022-10-22T04:25:31.401Z,0
2022-10-22T04:26:32.121Z,0
2022-10-22T04:27:32.010Z,0
2022-10-22T04:28:32.065Z,0
2022-10-22T04:29:31.403Z,0
2022-10-22T04:30:32.067Z,0
2022-10-22T04:31:32.050Z,0
2022-10-22T04:32:32.072Z,0
2022-10-22T04:33:31.361Z,0
2022-10-22T04:34:32.038Z,0
2022-10-22T04:35:32.119Z,0
2022-10-22T04:36:32.244Z,0
2022-10-22T04:37:31.353Z,0
2022-10-22T04:38:32.082Z,0
2022-10-22T04:39:32.029Z,0
2022-10-22T04:40:32.064Z,0
2022-10-22T04:41:31.388Z,0
2022-10-22T04:42:32.079Z,0
2022-10-22T04:43:32.044Z,0
2022-10-22T04:44:32.069Z,0
2022-10-22T04:45:31.400Z,0
2022-10-22T04:46:32.127Z,0
2022-10-22T04:47:32.079Z,0
2022-10-22T04:48:32.073Z,0
2022-10-22T04:49:31.385Z,0
2022-10-22T04:50:32.059Z,0
2022-10-22T04:51:32.030Z,0
2022-10-22T04:52:32.072Z,0
2022-10-22T04:53:32.116Z,0
2022-10-22T04:54:33.156Z,0
2022-10-22T04:55:32.055Z,0
2022-10-22T04:56:32.058Z,0
2022-10-22T04:57:31.366Z,0
2022-10-22T04:58:32.165Z,0
2022-10-22T04:59:32.061Z,0
2022-10-22T05:00:32.231Z,0
2022-10-22T05:01:31.503Z,0
2022-10-22T05:02:32.031Z,0
2022-10-22T05:03:32.073Z,0
2022-10-22T05:04:32.062Z,0
2022-10-22T05:05:32.070Z,0
2022-10-22T05:06:32.024Z,0
2022-10-22T05:07:32.097Z,0
2022-10-22T05:08:32.099Z,0
2022-10-22T05:09:32.084Z,0
2022-10-22T05:10:32.044Z,0
2022-10-22T05:11:32.074Z,0
2022-10-22T05:12:32.054Z,0
2022-10-22T05:13:31.362Z,0
2022-10-22T05:14:32.083Z,0
2022-10-22T05:15:32.086Z,0
2022-10-22T05:16:32.244Z,0
2022-10-22T05:17:31.380Z,0
2022-10-22T05:18:32.056Z,0
2022-10-22T05:19:32.079Z,0
2022-10-22T05:20:32.046Z,0
2022-10-22T05:21:31.369Z,0
2022-10-22T05:22:32.035Z,0
2022-10-22T05:23:32.055Z,0
2022-10-22T05:24:32.056Z,0
2022-10-22T05:25:32.083Z,0
2022-10-22T05:26:32.037Z,0
2022-10-22T05:27:32.084Z,0
2022-10-22T05:28:32.083Z,0
2022-10-22T05:29:32.070Z,0
2022-10-22T05:30:32.037Z,0
2022-10-22T05:31:32.074Z,0
2022-10-22T05:32:32.050Z,0
2022-10-22T05:33:32.074Z,0
2022-10-22T05:34:32.039Z,0
2022-10-22T05:35:32.050Z,0
2022-10-22T05:36:32.205Z,0
2022-10-22T05:37:32.073Z,0
2022-10-22T05:38:32.035Z,0
2022-10-22T05:39:32.050Z,0
2022-10-22T05:40:32.057Z,0
2022-10-22T05:41:32.069Z,0
2022-10-22T05:42:32.048Z,0
2022-10-22T05:43:32.067Z,0
2022-10-22T05:44:32.053Z,0
2022-10-22T05:45:32.044Z,0
2022-10-22T05:46:32.034Z,0
2022-10-22T05:47:32.067Z,0
2022-10-22T05:49:32.103Z,0
2022-10-22T05:50:32.049Z,0
2022-10-22T05:51:32.053Z,0
2022-10-22T05:52:32.053Z,0
2022-10-22T05:53:32.233Z,0
2022-10-22T05:54:32.049Z,0
2022-10-22T05:55:32.051Z,0
2022-10-22T05:56:32.052Z,0
2022-10-22T05:57:32.053Z,0
2022-10-22T05:58:32.057Z,0
2022-10-22T05:59:32.068Z,0
2022-10-22T06:00:32.036Z,0
2022-10-22T06:01:32.093Z,0
2022-10-22T06:02:32.105Z,0.36
2022-10-22T06:03:32.062Z,0
2022-10-22T06:04:32.089Z,0.36
2022-10-22T06:05:32.057Z,0
2022-10-22T06:06:32.081Z,0
2022-10-22T06:07:32.095Z,0.36
2022-10-22T06:08:32.086Z,0.85
2022-10-22T06:09:32.116Z,0.36
2022-10-22T06:10:32.092Z,2.08
2022-10-22T06:11:34.985Z,0.85
2022-10-22T06:12:32.050Z,1.71
2022-10-22T06:13:31.981Z,1.22
2022-10-22T06:14:32.090Z,2.08
2022-10-22T06:15:32.027Z,1.71
2022-10-22T06:16:32.053Z,1.71
2022-10-22T06:17:32.060Z,2.08
2022-10-22T06:18:32.064Z,2.57
2022-10-22T06:19:32.057Z,2.57
2022-10-22T06:20:32.069Z,3.43
2022-10-22T06:21:32.053Z,3.43
2022-10-22T06:22:32.063Z,2.94
2022-10-22T06:23:32.004Z,3.43
2022-10-22T06:24:32.086Z,2.94
2022-10-22T06:25:32.050Z,2.57
2022-10-22T06:26:32.089Z,2.94
2022-10-22T06:27:32.029Z,2.94
2022-10-22T06:28:32.078Z,2.57
2022-10-22T06:29:32.060Z,3.79
2022-10-22T06:30:32.043Z,3.43
2022-10-22T06:31:32.045Z,3.79
2022-10-22T06:32:32.062Z,3.43
2022-10-22T06:33:32.047Z,3.43
2022-10-22T06:34:32.062Z,2.94
2022-10-22T06:35:32.186Z,2.57
2022-10-22T06:36:32.099Z,2.57
2022-10-22T06:37:32.137Z,3.79
2022-10-22T06:38:32.046Z,5.14
2022-10-22T06:39:32.023Z,5.14
2022-10-22T06:40:32.081Z,5.63
2022-10-22T06:41:32.143Z,6.48
2022-10-22T06:42:32.185Z,5.99
2022-10-22T06:43:32.097Z,6.48
2022-10-22T06:44:32.094Z,6.48
2022-10-22T06:45:32.070Z,5.99
2022-10-22T06:46:32.085Z,6.48
2022-10-22T06:47:32.040Z,8.19
2022-10-22T06:48:32.082Z,7.34
2022-10-22T06:49:32.056Z,8.56
2022-10-22T06:50:32.085Z,8.19
2022-10-22T06:51:32.031Z,7.34
2022-10-22T06:52:32.048Z,7.34
2022-10-22T06:53:32.413Z,6.48
2022-10-22T06:54:32.134Z,6.85
2022-10-22T06:55:32.081Z,6.48
2022-10-22T06:56:32.066Z,7.34
2022-10-22T06:57:32.117Z,6.48
2022-10-22T06:58:32.086Z,5.99
2022-10-22T06:59:32.108Z,5.63
2022-10-22T07:01:32.105Z,6.48
2022-10-22T07:02:32.019Z,7.7
2022-10-22T07:03:32.057Z,6.85
2022-10-22T07:04:32.058Z,6.85
2022-10-22T07:05:32.286Z,7.34
2022-10-22T07:06:32.032Z,7.7
2022-10-22T07:07:32.095Z,6.85
2022-10-22T07:08:32.149Z,8.19
2022-10-22T07:09:32.050Z,7.7
2022-10-22T07:10:32.122Z,7.7
2022-10-22T07:11:32.071Z,7.7
2022-10-22T07:12:32.065Z,7.34
2022-10-22T07:13:32.061Z,7.7
2022-10-22T07:14:32.047Z,7.7
2022-10-22T07:15:32.036Z,8.56
2022-10-22T07:16:32.517Z,7.7
2022-10-22T07:17:32.105Z,8.56
2022-10-22T07:18:32.063Z,7.7
2022-10-22T07:19:32.199Z,7.34
2022-10-22T07:20:32.037Z,8.19
2022-10-22T07:21:32.043Z,7.34
2022-10-22T07:22:32.064Z,7.7
2022-10-22T07:23:32.035Z,8.19
2022-10-22T07:24:32.123Z,8.19
2022-10-22T07:25:32.053Z,8.19
2022-10-22T07:26:32.056Z,7.7
2022-10-22T07:27:32.079Z,7.34
2022-10-22T07:28:32.027Z,7.34
2022-10-22T07:29:32.063Z,8.19
2022-10-22T07:30:32.209Z,6.85
2022-10-22T07:31:32.034Z,8.19
2022-10-22T07:32:32.009Z,8.56
2022-10-22T07:33:32.064Z,8.19
2022-10-22T07:34:32.055Z,9.54
2022-10-22T07:35:32.034Z,9.05
2022-10-22T07:36:32.042Z,10.39
2022-10-22T07:37:32.058Z,10.39
2022-10-22T07:38:32.058Z,9.91
2022-10-22T07:39:32.057Z,8.19
2022-10-22T07:40:32.006Z,8.56
2022-10-22T07:41:32.042Z,7.7
2022-10-22T07:42:32.064Z,8.19
2022-10-22T07:43:32.035Z,8.19
2022-10-22T07:44:32.027Z,8.56
2022-10-22T07:45:32.050Z,8.19
2022-10-22T07:46:32.064Z,7.34
2022-10-22T07:47:32.042Z,7.7
2022-10-22T07:48:32.066Z,8.19
2022-10-22T07:49:32.062Z,6.85
2022-10-22T07:50:32.093Z,7.7
2022-10-22T07:51:32.047Z,7.7
2022-10-22T07:52:32.043Z,8.56
2022-10-22T07:53:32.122Z,8.19
2022-10-22T07:54:32.073Z,7.7
2022-10-22T07:55:32.022Z,7.34
2022-10-22T07:56:32.045Z,6.48
2022-10-22T07:57:32.167Z,7.34
2022-10-22T07:58:32.059Z,6.85
2022-10-22T07:59:32.011Z,6.85
2022-10-22T08:00:32.078Z,6.48
2022-10-22T08:01:32.096Z,5.63
2022-10-22T08:02:32.075Z,5.63
2022-10-22T08:03:32.023Z,5.14
2022-10-22T08:04:32.081Z,5.63
2022-10-22T08:05:32.118Z,5.14
2022-10-22T08:06:32.079Z,5.14
2022-10-22T08:07:32.041Z,5.14
2022-10-22T08:08:32.068Z,4.77
2022-10-22T08:09:32.060Z,4.77
2022-10-22T08:10:32.048Z,5.63
2022-10-22T08:11:32.046Z,4.77
2022-10-22T08:12:32.030Z,3.79
2022-10-22T08:13:32.057Z,4.77
2022-10-22T08:14:32.046Z,5.14
2022-10-22T08:15:32.074Z,6.85
2022-10-22T08:16:32.022Z,7.7
2022-10-22T08:17:32.021Z,9.05
2022-10-22T08:18:32.034Z,9.05
2022-10-22T08:19:32.091Z,10.39
2022-10-22T08:20:32.067Z,10.39
2022-10-22T08:21:32.046Z,12.11
2022-10-22T08:22:32.060Z,13.33
2022-10-22T08:23:32.045Z,13.33
2022-10-22T08:24:32.032Z,13.82
2022-10-22T08:25:32.039Z,13.33
2022-10-22T08:26:32.039Z,12.97
2022-10-22T08:27:32.053Z,11.62
2022-10-22T08:28:32.036Z,11.25
2022-10-22T08:29:32.174Z,10.77
2022-10-22T08:30:32.065Z,10.77
2022-10-22T08:31:32.033Z,9.91
2022-10-22T08:32:32.028Z,9.91
2022-10-22T08:33:32.023Z,9.91
2022-10-22T08:34:32.056Z,10.39
2022-10-22T08:35:32.041Z,10.39
2022-10-22T08:36:32.020Z,10.77
2022-10-22T08:37:32.074Z,11.25
2022-10-22T08:38:32.051Z,11.62
2022-10-22T08:39:32.065Z,11.62
2022-10-22T08:40:32.044Z,12.11
2022-10-22T08:41:32.041Z,12.48
2022-10-22T08:42:32.036Z,12.97
2022-10-22T08:43:32.055Z,13.82
2022-10-22T08:44:32.040Z,13.82
2022-10-22T08:45:32.026Z,14.31
2022-10-22T08:46:32.047Z,15.17
2022-10-22T08:47:32.051Z,15.17
2022-10-22T08:48:32.016Z,16.39
2022-10-22T08:49:32.044Z,16.88
2022-10-22T08:50:32.022Z,16.88
2022-10-22T08:51:32.030Z,16.02
2022-10-22T08:52:32.009Z,16.39
2022-10-22T08:53:32.051Z,15.53
2022-10-22T08:54:32.056Z,15.17
2022-10-22T08:55:36.503Z,15.53
2022-10-22T08:56:32.047Z,15.53
2022-10-22T08:58:32.037Z,15.53
2022-10-22T08:59:32.069Z,16.39
2022-10-22T09:00:32.043Z,16.39
2022-10-22T09:01:32.033Z,16.02
2022-10-22T09:02:32.054Z,16.88
2022-10-22T09:03:32.061Z,17.73
2022-10-22T09:04:32.205Z,17.25
2022-10-22T09:05:32.030Z,17.25
2022-10-22T09:06:32.033Z,17.25
2022-10-22T09:07:32.119Z,17.25
2022-10-22T09:08:32.137Z,17.25
2022-10-22T09:09:32.026Z,17.25
2022-10-22T09:10:32.022Z,17.25
2022-10-22T09:11:32.026Z,17.25
2022-10-22T09:12:32.037Z,16.39
2022-10-22T09:13:31.991Z,16.88
2022-10-22T09:14:32.021Z,16.88
2022-10-22T09:15:32.056Z,17.73
2022-10-22T09:16:32.036Z,18.11
2022-10-22T09:17:32.033Z,17.73
2022-10-22T09:18:32.033Z,17.25
2022-10-22T09:19:33.230Z,18.11
2022-10-22T09:20:32.047Z,17.25
2022-10-22T09:21:31.998Z,18.11
2022-10-22T09:22:32.215Z,18.6
2022-10-22T09:23:32.051Z,18.6
2022-10-22T09:24:32.979Z,18.11
2022-10-22T09:25:32.042Z,18.11
2022-10-22T09:26:32.050Z,17.73
2022-10-22T09:27:32.058Z,17.73
2022-10-22T09:28:32.029Z,16.88
2022-10-22T09:29:32.051Z,16.88
2022-10-22T09:30:32.055Z,15.53
2022-10-22T09:31:32.026Z,15.53
2022-10-22T09:32:32.042Z,15.17
2022-10-22T09:33:32.020Z,13.33
2022-10-22T09:34:32.043Z,13.82
2022-10-22T09:35:32.027Z,13.82
2022-10-22T09:36:32.022Z,14.31
2022-10-22T09:37:32.006Z,14.31
2022-10-22T09:38:32.012Z,13.82
2022-10-22T09:39:32.036Z,12.97
2022-10-22T09:40:32.035Z,12.48
2022-10-22T09:41:32.010Z,12.48
2022-10-22T09:42:32.049Z,12.11
2022-10-22T09:43:32.110Z,12.48
2022-10-22T09:44:32.021Z,12.48
2022-10-22T09:45:32.018Z,12.97
2022-10-22T09:46:32.044Z,14.31
2022-10-22T09:47:42.797Z,13.33
2022-10-22T09:48:32.093Z,13.33
2022-10-22T09:49:32.017Z,12.97
2022-10-22T09:50:32.030Z,12.97
2022-10-22T09:51:32.024Z,12.11
2022-10-22T09:52:32.098Z,12.48
2022-10-22T09:53:32.010Z,12.11
2022-10-22T09:54:32.041Z,11.62
2022-10-22T09:55:32.045Z,11.62
2022-10-22T09:56:32.039Z,11.25
2022-10-22T09:57:32.053Z,11.25
2022-10-22T09:58:32.019Z,9.91
2022-10-22T09:59:32.039Z,9.91
2022-10-22T10:00:32.021Z,9.54
2022-10-22T10:01:32.019Z,9.05
2022-10-22T10:02:38.494Z,9.05
2022-10-22T10:03:32.123Z,9.05
2022-10-22T10:04:32.031Z,9.54
2022-10-22T10:05:32.105Z,9.91
2022-10-22T10:06:32.142Z,9.05
2022-10-22T10:07:32.021Z,9.91
2022-10-22T10:08:32.200Z,10.39
2022-10-22T10:09:32.061Z,10.39
2022-10-22T10:10:32.099Z,9.91
2022-10-22T10:11:32.029Z,10.39
2022-10-22T10:12:32.136Z,10.39
2022-10-22T10:13:32.044Z,9.91
2022-10-22T10:14:32.016Z,10.39
2022-10-22T10:15:32.052Z,9.54
2022-10-22T10:16:32.054Z,9.05
2022-10-22T10:17:32.032Z,8.56
2022-10-22T10:18:31.996Z,8.56
2022-10-22T10:19:32.040Z,9.05
2022-10-22T10:20:32.069Z,8.19
2022-10-22T10:21:32.036Z,9.54
2022-10-22T10:22:32.003Z,8.56
2022-10-22T10:23:32.032Z,8.56
2022-10-22T10:24:32.040Z,8.56
2022-10-22T10:25:32.033Z,9.54
2022-10-22T10:26:32.088Z,9.05
2022-10-22T10:27:32.024Z,9.54
2022-10-22T10:28:32.051Z,9.91
2022-10-22T10:29:32.095Z,10.39
2022-10-22T10:30:32.390Z,9.54
2022-10-22T10:38:19.256Z,10.39
2022-10-22T10:39:23.043Z,11.25
2022-10-22T10:40:26.994Z,11.25
2022-10-22T10:41:31.077Z,11.62
2022-10-22T10:42:32.077Z,12.97
2022-10-22T10:43:32.081Z,12.97
2022-10-22T10:44:32.110Z,12.48
2022-10-22T10:45:32.063Z,12.97
2022-10-22T10:46:34.804Z,13.82
2022-10-22T10:47:32.139Z,13.82
2022-10-22T10:48:32.050Z,14.31
2022-10-22T10:49:32.081Z,14.68
2022-10-22T10:50:32.151Z,14.68
2022-10-22T10:51:32.094Z,15.53
2022-10-22T10:52:32.026Z,15.17
2022-10-22T10:53:32.053Z,15.17
2022-10-22T10:54:32.137Z,14.31
2022-10-22T10:55:32.057Z,15.17
2022-10-22T10:56:34.427Z,14.31
2022-10-22T10:57:32.035Z,13.82
2022-10-22T10:58:32.032Z,12.97
2022-10-22T10:59:32.075Z,12.48
2022-10-22T11:00:32.043Z,11.62
2022-10-22T11:01:32.075Z,11.62
2022-10-22T11:02:32.003Z,10.39
2022-10-22T11:03:32.033Z,11.62
2022-10-22T11:04:32.059Z,11.62
2022-10-22T11:05:32.050Z,12.48
2022-10-22T11:06:32.017Z,13.82
2022-10-22T11:07:34.908Z,14.68
2022-10-22T11:08:33.182Z,15.17
2022-10-22T11:09:46.961Z,14.68
2022-10-22T11:10:50.951Z,13.33
2022-10-22T11:11:55.004Z,15.17
2022-10-22T11:12:58.988Z,14.68
2022-10-22T11:14:02.997Z,15.17
2022-10-22T11:15:06.945Z,14.68
2022-10-22T11:16:10.939Z,14.31
2022-10-22T11:17:14.981Z,12.97
2022-10-22T11:18:18.979Z,13.82
2022-10-22T11:19:39.376Z,14.31
2022-10-22T11:20:27.233Z,16.39
2022-10-22T11:21:30.997Z,16.02
2022-10-22T11:22:32.062Z,17.25
2022-10-22T11:23:32.025Z,30.7
2022-10-22T11:24:32.113Z,30.7
2022-10-22T11:25:32.067Z,30.7
2022-10-22T11:26:32.035Z,32.42
2022-10-22T11:27:32.017Z,30.34
2022-10-22T11:28:32.068Z,27.65
2022-10-22T11:29:33.004Z,29.85
2022-10-22T11:30:32.032Z,33.76
2022-10-22T11:31:32.094Z,42.45
2022-10-22T11:32:32.099Z,39.88
2022-10-22T11:33:32.038Z,39.39
2022-10-22T11:34:33.982Z,36.33
2022-10-22T11:35:32.024Z,32.9
2022-10-22T11:37:32.037Z,33.76
2022-10-22T11:38:34.179Z,32.42
2022-10-22T11:39:31.999Z,29.85
2022-10-22T11:40:32.216Z,30.34
2022-10-22T11:41:32.110Z,31.19
2022-10-22T11:42:32.014Z,31.56
2022-10-22T11:43:32.033Z,28.63
2022-10-22T11:44:32.048Z,29.48
2022-10-22T11:45:32.041Z,34.62
2022-10-22T11:46:32.028Z,35.97
2022-10-22T11:47:31.990Z,38.53
2022-10-22T11:48:32.054Z,40.24
2022-10-22T11:49:32.064Z,41.96
2022-10-22T11:50:32.053Z,44.16
2022-10-22T11:51:32.006Z,42.45
2022-10-22T11:52:32.029Z,38.53
2022-10-22T11:53:32.025Z,34.62
2022-10-22T11:54:32.056Z,34.62
2022-10-22T11:55:32.146Z,37.19
2022-10-22T11:56:32.021Z,37.19
2022-10-22T11:57:32.020Z,35.11
2022-10-22T11:58:32.007Z,35.11
2022-10-22T11:59:32.180Z,33.39
2022-10-22T12:00:32.035Z,31.56
2022-10-22T12:01:32.040Z,30.7
2022-10-22T12:02:32.034Z,29.85
2022-10-22T12:03:32.114Z,28.99
2022-10-22T12:04:32.178Z,29.48
2022-10-22T12:05:32.017Z,29.48
2022-10-22T12:06:32.051Z,29.48
2022-10-22T12:07:32.016Z,29.48
2022-10-22T12:08:32.120Z,29.85
2022-10-22T12:09:32.062Z,29.85
2022-10-22T12:10:32.037Z,28.99
2022-10-22T12:11:32.035Z,31.56
2022-10-22T12:12:32.056Z,31.19
2022-10-22T12:13:31.996Z,30.7
2022-10-22T12:14:32.019Z,31.56
2022-10-22T12:15:32.048Z,33.39
2022-10-22T12:16:37.881Z,33.39
2022-10-22T12:17:32.050Z,32.9
2022-10-22T12:18:32.061Z,32.9
2022-10-22T12:19:32.044Z,30.7
2022-10-22T12:20:32.039Z,28.63
2022-10-22T12:21:32.017Z,26.42
2022-10-22T12:22:32.069Z,26.79
2022-10-22T12:23:32.025Z,26.42
2022-10-22T12:24:32.048Z,24.22
2022-10-22T12:25:35.447Z,23.36
2022-10-22T12:26:32.205Z,20.8
2022-10-22T12:27:32.015Z,19.08
2022-10-22T12:28:32.034Z,17.73
2022-10-22T12:29:32.076Z,16.39
2022-10-22T12:30:32.005Z,15.53
2022-10-22T12:31:31.972Z,14.68
2022-10-22T12:32:32.016Z,15.17
2022-10-22T12:33:32.077Z,15.17
2022-10-22T12:34:32.081Z,15.17
2022-10-22T12:35:32.005Z,16.39
2022-10-22T12:36:32.022Z,17.73
2022-10-22T12:37:32.042Z,18.11
2022-10-22T12:38:32.027Z,16.39
2022-10-22T12:39:32.020Z,14.68
2022-10-22T12:40:32.046Z,14.68
2022-10-22T12:41:32.036Z,14.68
2022-10-22T12:42:32.044Z,13.82
2022-10-22T12:43:32.026Z,12.11
2022-10-22T12:44:32.011Z,12.48
2022-10-22T12:45:33.021Z,12.48
2022-10-22T12:46:32.065Z,11.62
2022-10-22T12:47:32.004Z,11.25
2022-10-22T12:48:32.046Z,11.62
2022-10-22T12:49:32.016Z,11.62
2022-10-22T12:50:32.069Z,12.48
2022-10-22T12:52:32.020Z,12.97
2022-10-22T12:53:32.032Z,12.11
2022-10-22T12:54:32.030Z,13.33
2022-10-22T12:55:32.054Z,14.68
2022-10-22T12:56:32.005Z,14.68
2022-10-22T12:57:32.044Z,16.02
2022-10-22T12:58:32.117Z,15.17
2022-10-22T12:59:32.053Z,15.53
2022-10-22T13:00:32.086Z,13.82
2022-10-22T13:01:32.024Z,11.62
2022-10-22T13:02:32.026Z,10.39
2022-10-22T13:03:32.023Z,8.56
2022-10-22T13:04:32.017Z,7.7
2022-10-22T13:05:32.098Z,7.34
2022-10-22T13:06:32.003Z,7.34
2022-10-22T13:07:32.043Z,6.85
2022-10-22T13:08:32.079Z,6.85
2022-10-22T13:09:34.286Z,5.99
2022-10-22T13:10:32.124Z,6.85
2022-10-22T13:11:32.038Z,5.99
2022-10-22T13:12:31.970Z,7.34
2022-10-22T13:13:32.018Z,5.99
2022-10-22T13:14:32.040Z,5.99
2022-10-22T13:15:32.021Z,6.48
2022-10-22T13:16:32.056Z,6.85
2022-10-22T13:17:32.028Z,5.63
2022-10-22T13:18:32.027Z,5.14
2022-10-22T13:19:32.018Z,5.14
2022-10-22T13:20:32.009Z,5.14
2022-10-22T13:21:31.994Z,4.77
2022-10-22T13:22:32.113Z,5.63
2022-10-22T13:23:32.034Z,5.63
2022-10-22T13:24:31.990Z,5.63
2022-10-22T13:25:32.042Z,4.77
2022-10-22T13:26:32.020Z,4.28
2022-10-22T13:27:32.041Z,5.14
2022-10-22T13:28:31.997Z,5.63
2022-10-22T13:29:32.032Z,5.63
2022-10-22T13:30:32.017Z,5.63
2022-10-22T13:31:32.220Z,6.85
2022-10-22T13:32:32.017Z,9.54
2022-10-22T13:33:32.017Z,11.62
2022-10-22T13:34:32.033Z,13.82
2022-10-22T13:35:32.030Z,14.68
2022-10-22T13:36:32.007Z,15.53
2022-10-22T13:37:32.031Z,15.17
2022-10-22T13:38:32.013Z,15.53
2022-10-22T13:39:32.003Z,13.33
2022-10-22T13:40:32.823Z,12.11
2022-10-22T13:41:32.064Z,12.97
2022-10-22T13:42:32.044Z,12.97
2022-10-22T13:43:32.067Z,13.33
2022-10-22T13:44:32.006Z,13.82
2022-10-22T13:45:32.004Z,14.31
2022-10-22T13:46:32.037Z,13.82
2022-10-22T13:47:32.027Z,14.31
2022-10-22T13:48:32.005Z,15.17
2022-10-22T13:49:32.011Z,16.39
2022-10-22T13:50:32.006Z,16.02
2022-10-22T13:51:32.062Z,16.02
2022-10-22T13:52:32.037Z,15.17
2022-10-22T13:53:32.088Z,14.68
2022-10-22T13:54:32.008Z,14.31
2022-10-22T13:55:32.029Z,14.31
2022-10-22T13:56:32.000Z,15.53
2022-10-22T13:57:32.035Z,16.39
2022-10-22T13:58:32.003Z,15.17
2022-10-22T13:59:32.003Z,14.68
2022-10-22T14:00:32.103Z,13.33